createdAt,value
2019-03-20T00:02:09.360Z,83.40
2019-03-20T00:04:36.315Z,82.90
2019-03-20T00:07:02.718Z,82.80
2019-03-20T00:09:29.141Z,83.40
2019-03-20T00:11:55.429Z,84.20
2019-03-20T00:14:24.459Z,85.00
2019-03-20T00:16:50.795Z,84.80
2019-03-20T00:19:17.485Z,84.30
2019-03-20T00:21:43.691Z,83.30
2019-03-20T00:24:10.046Z,83.20
2019-03-20T00:26:36.182Z,82.50
2019-03-20T00:29:02.718Z,82.70
2019-03-20T00:31:28.968Z,82.80
2019-03-20T00:33:55.198Z,83.50
2019-03-20T00:36:21.911Z,84.70
2019-03-20T00:38:48.150Z,84.90
2019-03-20T00:41:14.492Z,85.00
2019-03-20T00:43:41.009Z,85.20
2019-03-20T00:46:07.472Z,85.80
2019-03-20T00:48:34.413Z,85.80
2019-03-20T00:51:03.076Z,85.90
2019-03-20T00:53:31.615Z,86.30
2019-03-20T00:56:02.789Z,86.50
2019-03-20T00:58:29.131Z,86.20
2019-03-20T01:00:55.474Z,86.00
2019-03-20T01:03:21.836Z,85.60
2019-03-20T01:05:50.924Z,85.60
2019-03-20T01:08:17.773Z,86.70
2019-03-20T01:10:44.206Z,87.00
2019-03-20T01:13:10.429Z,85.40
2019-03-20T01:15:36.584Z,84.90
2019-03-20T01:18:02.931Z,85.00
2019-03-20T01:20:29.228Z,85.40
2019-03-20T01:22:59.404Z,86.00
2019-03-20T01:25:25.573Z,86.80
2019-03-20T01:27:51.892Z,87.10
2019-03-20T01:30:39.995Z,87.00
2019-03-20T01:33:12.961Z,88.20
2019-03-20T01:35:39.948Z,87.20
2019-03-20T01:38:07.240Z,86.70
2019-03-20T01:40:33.860Z,85.40
2019-03-20T01:43:02.486Z,85.50
2019-03-20T01:45:29.111Z,86.30
2019-03-20T01:47:55.570Z,86.40
2019-03-20T01:50:22.001Z,86.40
2019-03-20T01:52:48.260Z,85.80
2019-03-20T01:55:14.746Z,84.70
2019-03-20T01:57:48.090Z,84.40
2019-03-20T02:00:14.512Z,85.00
2019-03-20T02:02:40.873Z,85.40
2019-03-20T02:05:09.589Z,86.20
2019-03-20T02:07:35.916Z,87.00
2019-03-20T02:10:06.182Z,87.70
2019-03-20T02:12:35.810Z,87.00
2019-03-20T02:15:08.629Z,87.70
2019-03-20T02:17:34.785Z,87.90
2019-03-20T02:20:01.268Z,86.60
2019-03-20T02:22:27.836Z,85.70
2019-03-20T02:24:53.964Z,85.10
2019-03-20T02:27:20.263Z,84.80
2019-03-20T02:29:48.658Z,84.50
2019-03-20T02:32:23.144Z,85.00
2019-03-20T02:34:49.373Z,85.50
2019-03-20T02:37:15.623Z,86.50
2019-03-20T02:39:47.226Z,86.50
2019-03-20T02:42:13.474Z,86.80
2019-03-20T02:44:42.883Z,88.40
2019-03-20T02:47:09.116Z,88.20
2019-03-20T02:49:35.838Z,88.40
2019-03-20T02:52:04.166Z,88.00
2019-03-20T02:54:40.342Z,87.50
2019-03-20T02:57:07.714Z,86.40
2019-03-20T02:59:33.985Z,87.00
2019-03-20T03:02:00.245Z,87.20
2019-03-20T03:04:28.493Z,87.30
2019-03-20T03:06:54.885Z,87.50
2019-03-20T03:09:23.308Z,87.60
2019-03-20T03:11:54.664Z,86.90
2019-03-20T03:14:24.360Z,86.80
2019-03-20T03:16:50.556Z,86.90
2019-03-20T03:19:17.898Z,87.90
2019-03-20T03:21:44.407Z,88.30
2019-03-20T03:24:13.414Z,87.80
2019-03-20T03:26:41.891Z,87.20
2019-03-20T03:29:08.305Z,86.70
2019-03-20T03:31:34.538Z,87.50
2019-03-20T03:34:02.870Z,88.70
2019-03-20T03:36:29.098Z,90.30
2019-03-20T03:38:57.503Z,89.90
2019-03-20T03:41:25.794Z,88.90
2019-03-20T03:43:52.052Z,88.20
2019-03-20T03:46:18.387Z,89.00
2019-03-20T03:48:48.207Z,89.30
2019-03-20T03:51:14.503Z,89.60
2019-03-20T03:53:40.843Z,90.10
2019-03-20T03:56:09.017Z,89.90
2019-03-20T03:58:35.258Z,89.30
2019-03-20T04:01:01.667Z,88.80
2019-03-20T04:03:27.909Z,88.00
2019-03-20T04:05:54.121Z,87.00
2019-03-20T04:08:20.493Z,87.10
2019-03-20T04:10:51.545Z,87.20
2019-03-20T04:13:17.905Z,87.70
2019-03-20T04:15:44.895Z,87.80
2019-03-20T04:18:11.115Z,87.80
2019-03-20T04:20:37.946Z,89.30
2019-03-20T04:23:04.295Z,90.50
2019-03-20T04:25:32.030Z,91.00
2019-03-20T04:27:58.904Z,91.30
2019-03-20T04:30:25.156Z,91.30
2019-03-20T04:32:53.859Z,90.20
2019-03-20T04:35:20.451Z,89.30
2019-03-20T04:37:54.516Z,89.50
2019-03-20T04:40:20.860Z,89.60
2019-03-20T04:42:47.343Z,89.70
2019-03-20T04:45:16.354Z,90.00
2019-03-20T04:47:43.461Z,89.90
2019-03-20T04:50:13.452Z,89.90
2019-03-20T04:52:39.940Z,90.10
2019-03-20T04:55:07.037Z,90.20
2019-03-20T04:57:33.412Z,90.10
2019-03-20T04:59:59.901Z,90.20
2019-03-20T05:02:26.176Z,90.20
2019-03-20T05:04:52.412Z,90.40
2019-03-20T05:07:18.806Z,90.50
2019-03-20T05:09:45.109Z,90.80
2019-03-20T05:12:11.864Z,91.40
2019-03-20T05:14:40.902Z,92.00
2019-03-20T05:17:07.297Z,92.00
2019-03-20T05:19:33.992Z,91.10
2019-03-20T05:22:00.270Z,90.60
2019-03-20T05:24:26.573Z,90.80
2019-03-20T05:26:53.430Z,90.70
2019-03-20T05:29:26.300Z,90.30
2019-03-20T05:31:55.485Z,90.40
2019-03-20T05:34:21.875Z,90.60
2019-03-20T05:36:50.528Z,90.90
2019-03-20T05:39:16.967Z,91.10
2019-03-20T05:41:43.174Z,90.90
2019-03-20T05:44:09.575Z,90.70
2019-03-20T05:46:35.734Z,90.20
2019-03-20T05:49:02.079Z,90.00
2019-03-20T05:51:28.277Z,90.20
2019-03-20T05:53:56.818Z,90.30
2019-03-20T05:56:23.100Z,91.00
2019-03-20T05:58:58.942Z,91.70
2019-03-20T06:01:30.823Z,92.10
2019-03-20T06:04:00.717Z,91.80
2019-03-20T06:06:33.589Z,91.20
2019-03-20T06:08:59.806Z,91.50
2019-03-20T06:11:31.774Z,91.80
2019-03-20T06:13:59.902Z,91.90
2019-03-20T06:16:32.998Z,92.00
2019-03-20T06:19:03.381Z,92.30
2019-03-20T06:21:32.743Z,92.10
2019-03-20T06:23:59.758Z,91.80
2019-03-20T06:26:26.725Z,92.10
2019-03-20T06:29:01.081Z,92.50
2019-03-20T06:31:29.658Z,92.90
2019-03-20T06:33:56.617Z,93.00
2019-03-20T06:36:23.066Z,93.10
2019-03-20T06:38:52.092Z,93.70
2019-03-20T06:41:18.436Z,94.50
2019-03-20T06:43:47.018Z,95.10
2019-03-20T06:46:15.390Z,95.20
2019-03-20T06:48:44.593Z,95.50
2019-03-20T06:51:10.578Z,95.20
2019-03-20T06:53:42.041Z,95.10
2019-03-20T06:56:08.374Z,95.30
2019-03-20T06:58:34.660Z,95.20
2019-03-20T07:01:10.807Z,95.10
2019-03-20T07:03:58.315Z,95.20
2019-03-20T07:06:38.006Z,95.60
2019-03-20T07:09:14.215Z,95.60
2019-03-20T07:11:41.948Z,95.50
2019-03-20T07:14:08.460Z,95.40
2019-03-20T07:16:35.581Z,95.40
2019-03-20T07:19:02.179Z,95.40
2019-03-20T07:21:28.623Z,95.50
2019-03-20T07:23:55.142Z,95.40
2019-03-20T07:26:21.402Z,95.50
2019-03-20T07:28:48.623Z,95.70
2019-03-20T07:31:22.545Z,96.10
2019-03-20T07:33:48.996Z,95.80
2019-03-20T07:36:18.088Z,95.50
2019-03-20T07:38:44.452Z,95.20
2019-03-20T07:41:10.790Z,95.30
2019-03-20T07:43:37.167Z,95.50
2019-03-20T07:46:03.722Z,96.00
2019-03-20T07:48:30.783Z,95.90
2019-03-20T07:50:57.320Z,95.60
2019-03-20T07:53:23.576Z,95.20
2019-03-20T07:55:50.077Z,95.00
2019-03-20T07:58:16.729Z,95.00
2019-03-20T08:00:43.053Z,95.10
2019-03-20T08:03:09.337Z,96.00
2019-03-20T08:05:40.708Z,96.00
2019-03-20T08:08:10.201Z,96.20
2019-03-20T08:10:36.631Z,96.30
2019-03-20T08:13:03.371Z,96.50
2019-03-20T08:15:29.962Z,96.40
2019-03-20T08:17:56.463Z,95.80
2019-03-20T08:20:28.286Z,94.40
2019-03-20T08:22:58.297Z,94.30
2019-03-20T08:25:24.713Z,93.60
2019-03-20T08:27:54.193Z,91.50
2019-03-20T08:30:20.834Z,90.20
2019-03-20T08:32:47.209Z,87.70
2019-03-20T08:35:13.836Z,89.60
2019-03-20T08:37:40.643Z,90.50
2019-03-20T08:40:12.903Z,89.90
2019-03-20T08:42:42.403Z,89.70
2019-03-20T08:45:14.383Z,87.50
2019-03-20T08:47:40.696Z,87.10
2019-03-20T08:50:19.524Z,85.00
2019-03-20T08:52:46.122Z,83.80
2019-03-20T08:55:16.381Z,83.30
2019-03-20T08:57:43.553Z,85.20
2019-03-20T09:00:24.321Z,83.90
2019-03-20T09:02:50.673Z,83.10
2019-03-20T09:05:17.163Z,81.90
2019-03-20T09:07:47.476Z,81.20
2019-03-20T09:10:20.555Z,80.90
2019-03-20T09:12:49.186Z,79.00
2019-03-20T09:15:16.700Z,79.70
2019-03-20T09:17:43.163Z,80.90
2019-03-20T09:20:16.643Z,70.80
2019-03-20T09:22:43.983Z,66.70
2019-03-20T09:25:21.421Z,61.30
2019-03-20T09:27:48.341Z,58.90
2019-03-20T09:30:26.545Z,59.80
2019-03-20T09:32:56.000Z,56.30
2019-03-20T09:35:22.423Z,56.90
2019-03-20T09:37:52.938Z,56.10
2019-03-20T09:40:24.145Z,52.90
2019-03-20T09:42:50.361Z,51.40
2019-03-20T09:45:17.752Z,51.70
2019-03-20T09:47:47.642Z,50.60
2019-03-20T09:50:18.126Z,50.70
2019-03-20T09:52:44.616Z,50.40
2019-03-20T09:55:14.331Z,49.20
2019-03-20T09:57:42.138Z,48.20
2019-03-20T10:00:24.163Z,46.10
2019-03-20T10:02:50.414Z,45.10
2019-03-20T10:05:16.988Z,44.90
2019-03-20T10:07:55.037Z,43.30
2019-03-20T10:10:23.937Z,43.30
2019-03-20T10:12:50.877Z,44.20
2019-03-20T10:15:24.839Z,42.70
2019-03-20T10:17:55.344Z,42.50
2019-03-20T10:20:29.860Z,42.30
2019-03-20T10:22:56.133Z,42.30
2019-03-20T10:25:22.542Z,43.20
2019-03-20T10:27:49.137Z,41.60
2019-03-20T10:30:23.835Z,40.50
2019-03-20T10:32:50.308Z,41.60
2019-03-20T10:35:21.052Z,42.40
2019-03-20T10:37:49.530Z,40.70
2019-03-20T10:40:21.996Z,39.60
2019-03-20T10:42:51.101Z,39.60
2019-03-20T10:45:20.874Z,41.20
2019-03-20T10:47:49.278Z,41.10
2019-03-20T10:50:23.151Z,40.90
2019-03-20T10:52:49.389Z,39.40
2019-03-20T10:55:16.357Z,38.60
2019-03-20T10:57:44.029Z,38.60
2019-03-20T11:00:26.129Z,39.50
2019-03-20T11:03:00.566Z,38.20
2019-03-20T11:05:34.535Z,38.00
2019-03-20T11:08:04.069Z,38.10
2019-03-20T11:10:39.813Z,38.30
2019-03-20T11:13:08.050Z,37.80
2019-03-20T11:15:36.312Z,37.80
2019-03-20T11:18:04.551Z,36.20
2019-03-20T11:20:36.575Z,35.50
2019-03-20T11:23:04.270Z,35.80
2019-03-20T11:25:32.849Z,35.60
2019-03-20T11:28:01.767Z,34.90
2019-03-20T11:30:29.133Z,35.00
2019-03-20T11:32:56.911Z,35.40
2019-03-20T11:35:26.140Z,35.30
2019-03-20T11:38:00.253Z,35.30
2019-03-20T11:40:32.411Z,34.30
2019-03-20T11:42:58.867Z,33.70
2019-03-20T11:45:30.437Z,34.90
2019-03-20T11:48:02.217Z,34.40
2019-03-20T11:50:34.413Z,34.20
2019-03-20T11:53:07.090Z,34.70
2019-03-20T11:55:37.087Z,34.30
2019-03-20T11:58:10.810Z,33.50
2019-03-20T12:00:43.027Z,34.10
2019-03-20T12:03:09.972Z,33.40
2019-03-20T12:05:38.472Z,34.00
2019-03-20T12:08:09.912Z,33.80
2019-03-20T12:10:37.381Z,33.20
2019-03-20T12:13:12.351Z,34.30
2019-03-20T12:15:38.808Z,33.40
2019-03-20T12:18:07.911Z,32.40
2019-03-20T12:20:34.440Z,33.00
2019-03-20T12:23:03.096Z,33.70
2019-03-20T12:25:32.447Z,33.70
2019-03-20T12:28:03.653Z,32.90
2019-03-20T12:30:37.016Z,33.50
2019-03-20T12:33:07.259Z,33.30
2019-03-20T12:35:43.279Z,33.80
2019-03-20T12:38:18.834Z,34.20
2019-03-20T12:40:52.504Z,34.00
2019-03-20T12:43:19.568Z,33.30
2019-03-20T12:45:54.726Z,33.50
2019-03-20T12:48:20.971Z,33.50
2019-03-20T12:50:55.856Z,33.10
2019-03-20T12:53:31.028Z,33.00
2019-03-20T12:56:02.560Z,33.60
2019-03-20T12:58:34.105Z,32.50
2019-03-20T13:01:00.862Z,33.00
2019-03-20T13:03:27.905Z,32.70
2019-03-20T13:05:54.426Z,33.80
2019-03-20T13:08:21.467Z,33.50
2019-03-20T13:10:50.352Z,33.30
2019-03-20T13:13:18.991Z,33.80
2019-03-20T13:15:49.980Z,33.30
2019-03-20T13:18:18.558Z,32.60
2019-03-20T13:20:47.285Z,32.90
2019-03-20T13:23:18.387Z,32.80
2019-03-20T13:25:46.907Z,32.80
2019-03-20T13:28:15.470Z,33.00
2019-03-20T13:30:56.622Z,32.80
2019-03-20T13:33:26.085Z,33.50
2019-03-20T13:35:52.179Z,32.80
2019-03-20T13:38:20.448Z,33.80
2019-03-20T13:40:51.428Z,32.90
2019-03-20T13:43:17.685Z,32.60
2019-03-20T13:45:44.368Z,32.60
2019-03-20T13:48:11.495Z,33.10
2019-03-20T13:50:40.352Z,32.60
2019-03-20T13:53:19.298Z,33.00
2019-03-20T13:55:47.554Z,33.50
2019-03-20T13:58:17.704Z,34.20
2019-03-20T14:00:48.663Z,33.70
2019-03-20T14:03:22.625Z,34.70
2019-03-20T14:05:49.112Z,33.90
2019-03-20T14:08:19.677Z,33.70
2019-03-20T14:10:52.221Z,33.20
2019-03-20T14:13:26.076Z,33.20
2019-03-20T14:16:01.849Z,32.40
2019-03-20T14:18:38.791Z,32.20
2019-03-20T14:21:05.004Z,31.70
2019-03-20T14:23:34.196Z,31.70
2019-03-20T14:26:06.256Z,31.40
2019-03-20T14:28:36.356Z,31.60
2019-03-20T14:31:06.333Z,32.20
2019-03-20T14:33:33.434Z,32.60
2019-03-20T14:36:02.957Z,32.50
2019-03-20T14:38:29.159Z,33.80
2019-03-20T14:41:01.398Z,31.80
2019-03-20T14:43:31.516Z,31.30
2019-03-20T14:46:01.370Z,31.30
2019-03-20T14:48:30.051Z,31.40
2019-03-20T14:50:56.270Z,30.90
2019-03-20T14:59:07.409Z,29.90
2019-03-20T15:01:37.179Z,30.00
2019-03-20T15:04:03.625Z,30.10
2019-03-20T15:06:32.195Z,29.90
2019-03-20T15:08:58.578Z,29.80
2019-03-20T15:11:25.442Z,30.20
2019-03-20T15:13:56.748Z,29.80
2019-03-20T15:16:25.709Z,29.60
2019-03-20T15:18:52.049Z,29.70
2019-03-20T15:21:18.443Z,30.30
2019-03-20T15:23:44.803Z,31.00
2019-03-20T15:26:15.893Z,30.70
2019-03-20T15:28:41.950Z,30.30
2019-03-20T15:31:11.249Z,29.90
2019-03-20T15:33:37.516Z,29.40
2019-03-20T15:36:06.496Z,29.90
2019-03-20T15:38:36.375Z,29.80
2019-03-20T15:41:02.706Z,29.60
2019-03-20T15:43:29.683Z,29.30
2019-03-20T15:45:57.864Z,28.80
2019-03-20T15:48:24.092Z,29.00
2019-03-20T15:50:52.269Z,29.50
2019-03-20T15:53:23.094Z,29.10
2019-03-20T15:55:51.707Z,29.20
2019-03-20T15:58:18.227Z,28.70
2019-03-20T16:00:44.567Z,28.90
2019-03-20T16:03:42.663Z,29.00
2019-03-20T16:06:09.744Z,29.50
2019-03-20T16:08:40.277Z,29.50
2019-03-20T16:11:07.054Z,29.60
2019-03-20T16:13:38.832Z,29.80
2019-03-20T16:16:05.057Z,29.90
2019-03-20T16:18:32.009Z,30.10
2019-03-20T16:21:01.252Z,30.70
2019-03-20T16:23:30.891Z,30.20
2019-03-20T16:25:59.020Z,30.70
2019-03-20T16:28:25.308Z,30.60
2019-03-20T16:30:56.167Z,30.90
2019-03-20T16:33:27.793Z,30.90
2019-03-20T16:35:54.286Z,31.60
2019-03-20T16:38:20.540Z,32.50
2019-03-20T16:40:46.767Z,32.70
2019-03-20T16:43:13.131Z,32.60
2019-03-20T16:45:42.388Z,32.90
2019-03-20T16:48:10.604Z,33.30
2019-03-20T16:50:39.177Z,33.40
2019-03-20T16:53:05.717Z,33.80
2019-03-20T16:55:32.092Z,34.40
2019-03-20T16:57:58.795Z,34.10
2019-03-20T17:00:38.312Z,34.50
2019-03-20T17:03:04.515Z,35.00
2019-03-20T17:05:34.450Z,35.30
2019-03-20T17:08:01.098Z,35.60
2019-03-20T17:10:31.188Z,35.90
2019-03-20T17:12:58.470Z,35.80
2019-03-20T17:15:44.141Z,36.40
2019-03-20T17:18:12.529Z,36.50
2019-03-20T17:20:48.669Z,36.60
2019-03-20T17:23:20.251Z,36.80
2019-03-20T17:26:06.665Z,36.70
2019-03-20T17:32:05.464Z,36.80
2019-03-20T17:41:01.911Z,36.70
2019-03-20T17:43:38.028Z,37.10
2019-03-20T17:46:09.047Z,37.40
2019-03-20T17:48:35.334Z,37.70
2019-03-20T17:51:07.147Z,38.30
2019-03-20T17:53:35.351Z,38.70
2019-03-20T17:56:09.192Z,38.60
2019-03-20T17:58:35.175Z,39.50
2019-03-20T18:01:12.321Z,39.90
2019-03-20T18:03:51.316Z,40.00
2019-03-20T18:06:21.529Z,39.50
2019-03-20T18:08:50.643Z,39.50
2019-03-20T18:11:17.201Z,40.00
2019-03-20T18:13:43.426Z,40.20
2019-03-20T18:16:09.698Z,40.20
2019-03-20T18:18:40.482Z,40.70
2019-03-20T18:21:13.169Z,41.20
2019-03-20T18:23:39.494Z,41.70
2019-03-20T18:26:05.827Z,41.90
2019-03-20T18:28:41.700Z,42.10
2019-03-20T18:31:07.924Z,42.60
2019-03-20T18:33:38.228Z,42.90
2019-03-20T18:36:05.610Z,43.40
2019-03-20T18:38:34.220Z,44.00
2019-03-20T18:41:00.483Z,43.80
2019-03-20T18:43:26.921Z,45.00
2019-03-20T18:45:53.189Z,44.90
2019-03-20T18:48:19.437Z,44.80
2019-03-20T18:50:45.784Z,45.00
2019-03-20T18:53:12.233Z,45.40
2019-03-20T18:55:43.132Z,45.00
2019-03-20T18:58:09.516Z,45.10
2019-03-20T19:00:35.981Z,45.30
2019-03-20T19:03:08.522Z,45.50
2019-03-20T19:05:59.868Z,45.50
2019-03-20T19:08:29.529Z,45.80
2019-03-20T19:11:01.466Z,45.90
2019-03-20T19:13:35.746Z,46.10
2019-03-20T19:16:07.447Z,46.30
2019-03-20T19:18:38.989Z,46.60
2019-03-20T19:21:05.489Z,46.70
2019-03-20T19:23:31.774Z,46.80
2019-03-20T19:25:58.104Z,47.00
2019-03-20T19:28:25.598Z,47.30
2019-03-20T19:30:51.912Z,47.60
2019-03-20T19:33:21.282Z,47.80
2019-03-20T19:35:47.529Z,48.10
2019-03-20T19:38:17.279Z,48.90
2019-03-20T19:40:46.711Z,49.90
2019-03-20T19:43:19.187Z,50.20
2019-03-20T19:45:45.446Z,50.40
2019-03-20T19:48:15.690Z,50.50
2019-03-20T19:50:42.595Z,50.70
2019-03-20T19:53:11.602Z,51.00
2019-03-20T19:55:38.590Z,52.60
2019-03-20T19:58:04.934Z,52.60
2019-03-20T20:00:35.410Z,52.40
2019-03-20T20:03:01.836Z,52.30
2019-03-20T20:05:28.081Z,52.50
2019-03-20T20:07:57.148Z,52.60
2019-03-20T20:10:27.357Z,52.40
2019-03-20T20:12:53.794Z,52.60
2019-03-20T20:15:23.864Z,53.20
2019-03-20T20:17:50.606Z,53.90
2019-03-20T20:20:22.382Z,54.80
2019-03-20T20:22:48.776Z,55.40
2019-03-20T20:25:15.184Z,55.50
2019-03-20T20:27:46.247Z,55.70
2019-03-20T20:30:16.648Z,55.90
2019-03-20T20:32:42.975Z,56.00
2019-03-20T20:35:12.074Z,56.30
2019-03-20T20:37:38.637Z,55.80
2019-03-20T20:40:08.076Z,56.30
2019-03-20T20:42:43.066Z,56.20
2019-03-20T20:45:12.696Z,56.00
2019-03-20T20:47:40.230Z,56.40
2019-03-20T20:50:11.486Z,56.60
2019-03-20T20:52:40.797Z,57.20
2019-03-20T20:55:10.437Z,57.70
2019-03-20T20:57:37.030Z,58.20
2019-03-20T21:00:13.100Z,58.40
2019-03-20T21:02:39.691Z,58.90
2019-03-20T21:05:06.964Z,59.50
2019-03-20T21:07:33.288Z,59.80
2019-03-20T21:09:59.670Z,59.90
2019-03-20T21:12:26.255Z,59.90
2019-03-20T21:14:52.478Z,59.90
2019-03-20T21:17:22.513Z,60.40
2019-03-20T21:19:51.003Z,60.60
2019-03-20T21:22:33.412Z,60.90
2019-03-20T21:24:59.979Z,60.90
2019-03-20T21:27:33.226Z,60.90
2019-03-20T21:30:10.048Z,60.80
2019-03-20T21:32:52.540Z,61.40
2019-03-20T21:35:57.149Z,61.90
2019-03-20T21:38:25.340Z,62.50
2019-03-20T21:40:58.488Z,62.80
2019-03-20T21:44:02.794Z,62.10
2019-03-20T21:46:47.815Z,62.20
2019-03-20T21:49:14.846Z,62.00
2019-03-20T21:51:41.093Z,63.10
2019-03-20T21:54:14.599Z,63.80
2019-03-20T21:57:03.028Z,63.80
2019-03-20T22:00:12.862Z,63.30
2019-03-20T22:02:45.649Z,63.40
2019-03-20T22:05:30.910Z,64.10
2019-03-20T22:07:58.050Z,64.50
2019-03-20T22:10:28.187Z,64.50
2019-03-20T22:13:18.833Z,64.70
2019-03-20T22:16:18.644Z,64.80
2019-03-20T22:19:08.889Z,65.70
2019-03-20T22:21:58.799Z,65.90
2019-03-20T22:24:45.923Z,65.90
2019-03-20T22:27:18.154Z,65.20
2019-03-20T22:29:44.467Z,65.20
2019-03-20T22:32:34.618Z,65.10
2019-03-20T22:35:27.686Z,65.40
2019-03-20T22:37:55.831Z,65.90
2019-03-20T22:40:29.334Z,66.50
2019-03-20T22:43:17.621Z,67.20
2019-03-20T22:46:05.334Z,67.50
2019-03-20T22:48:51.818Z,67.60
2019-03-20T22:51:24.931Z,67.50
2019-03-20T22:54:22.406Z,67.90
2019-03-20T22:57:13.439Z,68.20
2019-03-20T22:59:40.489Z,69.10
2019-03-20T23:02:22.805Z,69.70
2019-03-20T23:05:00.353Z,69.70
2019-03-20T23:07:30.921Z,70.30
2019-03-20T23:09:57.452Z,70.40
2019-03-20T23:12:27.207Z,70.30
2019-03-20T23:14:54.871Z,70.20
2019-03-20T23:17:21.308Z,69.60
2019-03-20T23:19:48.366Z,69.30
2019-03-20T23:22:19.875Z,69.20
2019-03-20T23:24:46.345Z,68.90
2019-03-20T23:27:19.370Z,69.80
2019-03-20T23:29:51.137Z,70.30
2019-03-20T23:32:17.317Z,70.50
2019-03-20T23:34:52.846Z,70.40
2019-03-20T23:37:18.700Z,70.60
2019-03-20T23:39:45.870Z,70.40
2019-03-20T23:42:17.073Z,70.30
2019-03-20T23:44:43.503Z,70.50
2019-03-20T23:47:14.092Z,70.40
2019-03-20T23:49:49.154Z,71.00
2019-03-20T23:52:16.151Z,71.90
2019-03-20T23:54:44.309Z,72.00
2019-03-20T23:57:10.718Z,72.50
2019-03-20T23:59:38.970Z,72.40
